21 | 02 | 2024

Daten Vortag

Klimadaten von 10m Höhe gemessen, Station    

Datum / Zeit Intervall min Luftfeuchte % Temperatur °C absolut Luftdruck hPa Wind m/s Windbö m/s Richtung Relative Luftdruck hPa Taupunkt °C Windchill °C Niederschlag mm
20-02-2024 00:10 5 90 7.7 1016.3 7.2 9.7 NWW 1020.1 6.2 6.5 0.0
20-02-2024 00:18 5 90 7.6 1016.1 9.7 13.3 NWW 1019.9 6.1 4.7 0.0
20-02-2024 00:23 5 90 7.7 1016.0 8.6 11.2 NW 1019.8 6.2 5.5 0.0
20-02-2024 00:28 5 90 7.7 1016.1 7.2 9.7 NWW 1019.9 6.2 6.5 0.3
20-02-2024 00:33 5 91 7.5 1016.1 6.1 7.2 NWW 1019.9 6.1 7.5 0.3
20-02-2024 00:38 5 91 7.5 1016.2 6.1 9.7 W 1020.0 6.1 7.5 0.3
20-02-2024 00:43 5 90 7.5 1016.1 8.6 13.3 NW 1019.9 6.0 5.3 0.3
20-02-2024 00:48 5 90 7.5 1016.4 7.2 9.7 NWW 1020.2 6.0 6.3 0.3
20-02-2024 00:53 5 90 7.5 1016.2 11.2 14.8 W 1020.0 6.0 3.8 0.3
20-02-2024 00:58 5 90 7.5 1016.0 8.6 14.8 NWW 1019.8 6.0 5.3 0.3
20-02-2024 01:03 5 91 7.4 1016.2 8.6 9.7 NWW 1020.0 6.0 5.2 0.3
20-02-2024 01:08 5 91 7.4 1016.2 9.7 13.3 NW 1020.0 6.0 4.5 0.3
20-02-2024 01:13 5 91 7.3 1016.3 11.2 14.8 NWW 1020.1 5.9 3.6 0.3
20-02-2024 01:18 5 90 7.3 1016.1 11.2 13.3 NWW 1019.9 5.8 3.6 0.3
20-02-2024 01:23 5 90 7.4 1016.0 8.6 13.3 W 1019.8 5.9 5.2 0.3
20-02-2024 01:28 5 90 7.3 1016.1 9.7 14.8 NWW 1019.9 5.8 4.4 0.0
20-02-2024 01:33 5 90 7.2 1016.2 8.6 11.2 NWW 1020.0 5.7 5.0 0.0
20-02-2024 01:38 5 90 7.2 1016.1 6.1 9.7 NWW 1019.9 5.7 7.2 0.0
20-02-2024 01:43 5 90 7.1 1016.1 6.1 9.7 NWW 1019.9 5.6 7.1 0.0
20-02-2024 01:48 5 90 7.1 1016.0 6.1 9.7 NWW 1019.8 5.6 7.1 0.0
20-02-2024 01:53 5 91 7.1 1015.8 6.1 7.2 NWW 1019.6 5.7 7.1 0.0
20-02-2024 01:58 5 91 7.1 1016.1 6.1 9.7 NWW 1019.9 5.7 7.1 0.0
20-02-2024 02:03 5 91 7.1 1015.8 7.2 11.2 NWW 1019.6 5.7 5.8 0.0
20-02-2024 02:08 5 91 7.1 1016.0 8.6 11.2 W 1019.8 5.7 4.8 0.0
20-02-2024 02:13 5 90 7.2 1015.9 7.2 9.7 W 1019.7 5.7 5.9 0.0
20-02-2024 02:18 5 90 7.2 1015.9 6.1 9.7 NWW 1019.7 5.7 7.2 0.0
20-02-2024 02:23 5 90 7.3 1015.8 8.6 11.2 W 1019.6 5.8 5.1 0.0
20-02-2024 02:28 5 89 7.3 1015.8 9.7 11.2 NWW 1019.6 5.6 4.4 0.0
20-02-2024 02:33 5 89 7.4 1015.9 7.2 11.2 NWW 1019.7 5.7 6.1 0.0
20-02-2024 02:38 5 89 7.3 1015.9 8.6 13.3 W 1019.7 5.6 5.1 0.0
20-02-2024 02:43 5 89 7.4 1015.8 9.7 13.3 NWW 1019.6 5.7 4.5 0.0
20-02-2024 02:48 5 89 7.3 1015.9 7.2 9.7 NWW 1019.7 5.6 6.0 0.0
20-02-2024 02:53 5 89 7.3 1016.0 7.2 9.7 NWW 1019.8 5.6 6.0 0.0
20-02-2024 02:58 5 89 7.2 1016.0 7.2 11.2 NW 1019.8 5.5 5.9 0.0
20-02-2024 03:03 5 89 7.2 1016.0 7.2 11.2 NWW 1019.8 5.5 5.9 0.0
20-02-2024 03:08 5 89 7.2 1016.1 9.7 13.3 W 1019.9 5.5 4.3 0.0
20-02-2024 03:13 5 88 7.2 1015.8 9.7 17.3 NWW 1019.6 5.4 4.3 0.0
20-02-2024 03:18 5 88 7.2 1016.1 11.2 18.4 NWW 1019.9 5.4 3.5 0.0
20-02-2024 03:23 5 88 7.2 1015.8 12.2 14.8 W 1019.6 5.4 3.0 0.0
20-02-2024 03:28 5 89 7.2 1015.9 12.2 17.3 NWW 1019.7 5.5 3.0 0.0
20-02-2024 03:33 5 89 7.1 1015.9 12.2 14.8 NWW 1019.7 5.4 2.8 0.0
20-02-2024 03:38 5 89 7.0 1016.1 13.3 17.3 NWW 1019.9 5.3 2.2 0.0
20-02-2024 03:43 5 89 6.9 1015.9 9.7 13.3 NWW 1019.7 5.2 4.0 0.0
20-02-2024 03:48 5 90 6.9 1016.2 11.2 17.3 NWW 1020.0 5.4 3.2 0.0
20-02-2024 03:53 5 90 6.8 1016.1 11.2 14.8 NWW 1019.9 5.3 3.0 0.0
20-02-2024 03:58 5 89 6.8 1016.2 9.7 14.8 NWW 1020.0 5.1 3.8 0.0
20-02-2024 04:03 5 89 6.8 1016.1 11.2 14.8 NWW 1019.9 5.1 3.0 0.0
20-02-2024 04:08 5 90 6.8 1016.1 13.3 18.4 NWW 1019.9 5.3 2.0 0.0
20-02-2024 04:13 5 90 6.7 1016.1 13.3 18.4 NW 1019.9 5.2 1.9 0.0
20-02-2024 04:18 5 91 6.6 1016.2 8.6 11.2 NWW 1020.0 5.2 4.3 0.0
20-02-2024 04:23 5 91 6.6 1016.3 11.2 17.3 NWW 1020.1 5.2 2.8 0.0
20-02-2024 04:28 5 92 6.5 1016.3 9.7 11.2 W 1020.1 5.3 3.5 0.0
20-02-2024 04:33 5 92 6.5 1016.6 11.2 17.3 NWW 1020.4 5.3 2.7 0.0
20-02-2024 04:38 5 92 6.5 1016.5 9.7 13.3 NWW 1020.3 5.3 3.5 0.0
20-02-2024 04:43 5 92 6.5 1016.6 9.7 17.3 NWW 1020.4 5.3 3.5 0.0
20-02-2024 04:48 5 92 6.5 1016.5 8.6 14.8 NWW 1020.3 5.3 4.2 0.3
20-02-2024 04:53 5 92 6.5 1016.5 6.1 11.2 NWW 1020.3 5.3 6.5 0.3
20-02-2024 04:58 5 93 6.5 1016.4 11.2 14.8 NW 1020.2 5.5 2.7 0.6
20-02-2024 05:03 5 93 6.4 1016.6 8.6 13.3 NW 1020.4 5.4 4.1 0.6
20-02-2024 05:08 5 93 6.4 1016.9 8.6 13.3 W 1020.7 5.4 4.1 0.6
20-02-2024 05:13 5 93 6.4 1016.9 2.5 6.1 NNW 1020.7 5.4 6.4 0.6
20-02-2024 05:18 5 94 6.4 1016.9 7.2 13.3 NW 1020.7 5.5 5.1 0.6
20-02-2024 05:23 5 94 6.4 1017.0 3.6 7.2 NNE 1020.8 5.5 6.4 0.6
20-02-2024 05:28 5 94 6.4 1017.1 6.1 13.3 NNW 1020.9 5.5 6.4 0.6
20-02-2024 05:33 5 93 6.5 1017.1 1.1 3.6 NW 1020.9 5.5 6.5 0.6
20-02-2024 05:38 5 93 6.5 1017.1 5.0 11.2 NWW 1020.9 5.5 6.5 0.6
20-02-2024 05:43 5 93 6.5 1017.3 1.1 3.6 NNE 1021.1 5.5 6.5 0.6
20-02-2024 05:48 5 93 6.5 1017.3 2.5 11.2 SEE 1021.1 5.5 6.5 0.3
20-02-2024 05:53 5 93 6.5 1017.2 7.2 14.8 W 1021.0 5.5 5.2 0.3
20-02-2024 05:58 5 93 6.5 1017.4 6.1 11.2 NW 1021.2 5.5 6.5 0.0
20-02-2024 06:03 5 93 6.5 1017.3 7.2 17.3 NW 1021.1 5.5 5.2 0.0
20-02-2024 06:08 5 93 6.5 1017.5 5.0 11.2 SW 1021.3 5.5 6.5 0.0
20-02-2024 06:13 5 93 6.5 1017.6 7.2 17.3 NW 1021.4 5.5 5.2 0.0
20-02-2024 06:18 5 93 6.4 1017.4 7.2 18.4 NNW 1021.2 5.4 5.1 0.0
20-02-2024 06:23 5 93 6.4 1017.4 1.1 3.6 NWW 1021.2 5.4 6.4 0.0
20-02-2024 06:28 5 93 6.4 1017.5 9.7 18.4 NNW 1021.3 5.4 3.4 0.3
20-02-2024 06:33 5 93 6.4 1017.6 5.0 13.3 NWW 1021.4 5.4 6.4 0.3
20-02-2024 06:38 5 93 6.3 1017.7 1.1 3.6 W 1021.5 5.3 6.3 0.3
20-02-2024 06:43 5 93 6.3 1017.7 5.0 9.7 NW 1021.5 5.3 6.3 0.3
20-02-2024 06:48 5 93 6.4 1017.7 13.3 28.1 NWW 1021.5 5.4 1.5 0.3
20-02-2024 06:53 5 93 6.3 1017.8 3.6 9.7 N 1021.6 5.3 6.3 0.3
20-02-2024 06:58 5 92 6.3 1017.9 8.6 14.8 SWW 1021.7 5.1 4.0 0.3
20-02-2024 07:03 5 92 6.3 1018.0 5.0 14.8 NNW 1021.8 5.1 6.3 0.3
20-02-2024 07:08 5 92 6.2 1018.0 6.1 14.8 NWW 1021.8 5.0 6.2 0.3
20-02-2024 07:13 5 91 6.2 1017.9 5.0 17.3 NWW 1021.7 4.8 6.2 0.3
20-02-2024 07:18 5 90 6.2 1018.1 8.6 20.9 NNW 1021.9 4.7 3.9 0.3
20-02-2024 07:23 5 90 6.1 1018.1 7.2 11.2 N 1021.9 4.6 4.8 0.3
20-02-2024 07:28 5 89 6.1 1018.2 5.0 9.7 NWW 1022.0 4.4 6.1 0.0
20-02-2024 07:33 5 89 6.1 1018.1 5.0 13.3 W 1021.9 4.4 6.1 0.0
20-02-2024 07:38 5 88 6.1 1018.2 3.6 9.7 NE 1022.0 4.3 6.1 0.0
20-02-2024 07:43 5 87 6.0 1018.3 7.2 14.8 NNW 1022.1 4.0 4.7 0.0
20-02-2024 07:48 5 85 6.0 1018.5 13.3 18.4 NW 1022.3 3.7 1.0 0.0
20-02-2024 07:53 5 86 6.0 1018.3 12.2 22.0 W 1022.1 3.8 1.6 0.0
20-02-2024 07:58 5 86 6.0 1018.5 5.0 13.3 NW 1022.3 3.8 6.0 0.0
20-02-2024 08:03 5 86 6.0 1018.7 3.6 7.2 NWW 1022.5 3.8 6.0 0.0
20-02-2024 08:08 5 87 6.0 1018.8 5.0 14.8 NWW 1022.6 4.0 6.0 0.0
20-02-2024 08:13 5 86 5.9 1018.7 9.7 18.4 NW 1022.5 3.7 2.8 0.0
20-02-2024 08:18 5 86 5.9 1018.6 2.5 6.1 NW 1022.4 3.7 5.9 0.0
20-02-2024 08:23 5 86 5.9 1018.9 6.1 14.8 NW 1022.7 3.7 5.9 0.0
20-02-2024 08:28 5 86 6.0 1018.8 6.1 13.3 N 1022.6 3.8 6.0 0.0
20-02-2024 08:33 5 86 6.0 1018.9 5.0 13.3 N 1022.7 3.8 6.0 0.0
20-02-2024 08:38 5 86 6.0 1018.9 8.6 13.3 N 1022.7 3.8 3.6 0.0
20-02-2024 08:43 5 86 6.1 1018.9 8.6 18.4 W 1022.7 3.9 3.8 0.0
20-02-2024 08:48 5 85 6.1 1018.7 14.8 22.0 W 1022.5 3.8 0.5 0.0
20-02-2024 08:53 5 85 6.2 1019.0 8.6 14.8 NW 1022.8 3.9 3.9 0.0
20-02-2024 08:58 5 85 6.3 1019.0 8.6 13.3 NW 1022.8 4.0 4.0 0.0
20-02-2024 09:03 5 85 6.3 1019.0 7.2 14.8 NW 1022.8 4.0 5.0 0.0
20-02-2024 09:08 5 85 6.4 1019.1 8.6 14.8 NWW 1022.9 4.1 4.1 0.0
20-02-2024 09:13 5 84 6.4 1019.0 13.3 18.4 NW 1022.8 3.9 1.5 0.0
20-02-2024 09:18 5 84 6.5 1018.8 13.3 18.4 NW 1022.6 4.0 1.6 0.0
20-02-2024 09:23 5 85 6.6 1019.0 3.6 7.2 NWW 1022.8 4.3 6.6 0.0
20-02-2024 09:28 5 85 6.5 1019.0 8.6 14.8 NWW 1022.8 4.2 4.2 0.0
20-02-2024 09:33 5 85 6.6 1019.0 11.2 20.9 NWW 1022.8 4.3 2.8 0.0
20-02-2024 09:38 5 84 6.7 1018.9 12.2 18.4 NWW 1022.7 4.2 2.4 0.0
20-02-2024 09:43 5 85 6.7 1019.0 6.1 9.7 NWW 1022.8 4.4 6.7 0.0
20-02-2024 09:48 5 85 6.7 1018.9 7.2 9.7 NWW 1022.7 4.4 5.4 0.0
20-02-2024 09:53 5 85 6.8 1019.0 11.2 14.8 NWW 1022.8 4.5 3.0 0.0
20-02-2024 09:58 5 85 6.9 1018.8 8.6 11.2 W 1022.6 4.6 4.6 0.0
20-02-2024 10:03 5 85 6.9 1019.1 11.2 14.8 W 1022.9 4.6 3.2 0.0
20-02-2024 10:08 5 85 7.0 1019.1 8.6 13.3 NW 1022.9 4.7 4.7 0.0
20-02-2024 10:13 5 84 7.0 1019.1 11.2 17.3 NWW 1022.9 4.5 3.3 0.0
20-02-2024 10:18 5 85 7.1 1019.2 11.2 17.3 NWW 1023.0 4.8 3.4 0.0
20-02-2024 10:23 5 84 7.1 1018.8 14.8 20.9 NWW 1022.6 4.6 1.7 0.0
20-02-2024 10:28 5 85 7.1 1019.1 14.8 20.9 W 1022.9 4.8 1.7 0.0
20-02-2024 10:33 5 85 7.1 1019.0 12.2 18.4 W 1022.8 4.8 2.8 0.0
20-02-2024 10:38 5 85 7.1 1019.5 9.7 14.8 NWW 1023.3 4.8 4.2 0.0
20-02-2024 10:43 5 85 7.2 1019.0 9.7 14.8 NWW 1022.8 4.9 4.3 0.0
20-02-2024 10:48 5 85 7.2 1018.9 11.2 17.3 NWW 1022.7 4.9 3.5 0.0
20-02-2024 10:53 5 85 7.2 1019.1 9.7 14.8 NWW 1022.9 4.9 4.3 0.0
20-02-2024 10:58 5 85 7.2 1019.1 8.6 14.8 NWW 1022.9 4.9 5.0 0.0
20-02-2024 11:03 5 85 7.3 1019.1 9.7 13.3 NWW 1022.9 5.0 4.4 0.0
20-02-2024 11:08 5 85 7.3 1019.0 8.6 11.2 NWW 1022.8 5.0 5.1 0.0
20-02-2024 11:13 5 85 7.4 1018.9 7.2 13.3 NWW 1022.7 5.1 6.1 0.0
20-02-2024 11:18 5 85 7.4 1019.0 8.6 11.2 W 1022.8 5.1 5.2 0.0
20-02-2024 11:23 5 84 7.5 1019.0 8.6 13.3 SW 1022.8 5.0 5.3 0.0
20-02-2024 11:28 5 84 7.6 1019.0 9.7 13.3 NWW 1022.8 5.1 4.7 0.0
20-02-2024 11:33 5 84 7.8 1019.0 3.6 6.1 W 1022.8 5.3 7.8 0.0
20-02-2024 11:38 5 84 7.9 1018.9 8.6 13.3 NWW 1022.7 5.4 5.7 0.0
20-02-2024 11:43 5 83 8.0 1018.8 6.1 9.7 W 1022.6 5.3 8.0 0.0
20-02-2024 11:48 5 83 8.2 1018.9 5.0 11.2 NWW 1022.7 5.5 8.2 0.0
20-02-2024 11:53 5 83 8.3 1019.1 3.6 6.1 W 1022.9 5.6 8.3 0.0
20-02-2024 11:58 5 83 8.3 1019.1 8.6 13.3 SWW 1022.9 5.6 6.1 0.0
20-02-2024 12:03 5 82 8.4 1018.8 8.6 17.3 NWW 1022.6 5.5 6.3 0.0
20-02-2024 12:08 5 83 8.6 1018.9 7.2 9.7 NWW 1022.7 5.9 7.4 0.0
20-02-2024 12:13 5 82 8.7 1019.0 9.7 14.8 W 1022.8 5.8 6.0 0.0
20-02-2024 12:18 5 81 8.8 1018.8 8.6 13.3 NWW 1022.6 5.7 6.7 0.0
20-02-2024 12:23 5 82 8.8 1018.9 9.7 13.3 W 1022.7 5.9 6.1 0.0
20-02-2024 12:28 5 81 8.9 1018.9 15.8 22.0 NWW 1022.7 5.8 3.5 0.0
20-02-2024 12:33 5 81 8.9 1018.8 13.3 18.4 NWW 1022.6 5.8 4.5 0.0
20-02-2024 12:38 5 81 9.0 1018.8 9.7 14.8 W 1022.6 5.9 6.3 0.0
20-02-2024 12:42 5 81 9.1 1018.9 12.2 14.8 SWW 1022.7 6.0 5.2 0.0
20-02-2024 12:47 5 80 9.2 1018.7 14.8 20.9 NWW 1022.5 5.9 4.2 0.0
20-02-2024 12:52 5 79 9.2 1018.7 17.3 22.0 W 1022.5 5.8 3.4 0.0
20-02-2024 12:57 5 80 9.4 1018.7 9.7 14.8 W 1022.5 6.1 6.7 0.0
20-02-2024 13:02 5 79 9.1 1018.6 15.8 22.0 W 1022.4 5.7 3.7 0.0
20-02-2024 13:07 5 80 9.1 1018.8 14.8 24.5 NWW 1022.6 5.8 4.1 0.0
20-02-2024 13:12 5 78 9.2 1018.7 12.2 18.4 NWW 1022.5 5.6 5.3 0.0
20-02-2024 13:17 5 79 9.1 1018.9 13.3 18.4 W 1022.7 5.7 4.7 0.0
20-02-2024 13:22 5 79 9.2 1018.7 13.3 24.5 NWW 1022.5 5.8 4.8 0.0
20-02-2024 13:27 5 79 9.3 1018.6 13.3 17.3 W 1022.4 5.9 4.9 0.0
20-02-2024 13:32 5 78 9.5 1018.5 14.8 24.5 W 1022.3 5.9 4.6 0.0
20-02-2024 13:37 5 79 9.5 1018.8 12.2 14.8 W 1022.6 6.1 5.6 0.0
20-02-2024 13:42 5 78 9.4 1018.9 18.4 24.5 NWW 1022.7 5.8 3.3 0.0
20-02-2024 13:47 5 77 9.3 1019.0 15.8 24.5 SSW 1022.8 5.5 4.0 0.0
20-02-2024 13:52 5 78 9.5 1019.0 14.8 18.4 NWW 1022.8 5.9 4.6 0.0
20-02-2024 13:57 5 78 9.7 1018.9 12.2 17.3 SWW 1022.7 6.1 5.9 0.0
20-02-2024 14:02 5 77 9.7 1018.9 11.2 18.4 NWW 1022.7 5.9 6.4 0.0
20-02-2024 14:07 5 78 9.6 1018.8 15.8 28.1 W 1022.6 6.0 4.3 0.0
20-02-2024 14:12 5 78 9.5 1018.6 15.8 20.9 NWW 1022.4 5.9 4.2 0.0
20-02-2024 14:17 5 77 9.6 1018.8 11.2 22.0 NWW 1022.6 5.8 6.2 0.0
20-02-2024 14:22 5 77 9.5 1018.9 15.8 22.0 NWW 1022.7 5.7 4.2 0.0
20-02-2024 14:27 5 79 9.2 1018.8 14.8 18.4 W 1022.6 5.8 4.2 0.0
20-02-2024 14:32 5 78 9.3 1018.9 12.2 17.3 NWW 1022.7 5.7 5.4 0.0
20-02-2024 14:37 5 77 9.5 1018.8 11.2 18.4 NW 1022.6 5.7 6.1 0.0
20-02-2024 14:42 5 77 9.5 1018.8 19.4 24.5 W 1022.6 5.7 3.1 0.0
20-02-2024 14:47 5 79 9.0 1018.9 13.3 18.4 NWW 1022.7 5.6 4.6 0.0
20-02-2024 14:52 5 79 9.0 1018.8 11.2 14.8 NWW 1022.6 5.6 5.6 0.0
20-02-2024 14:57 5 79 8.8 1018.7 12.2 18.4 NWW 1022.5 5.4 4.8 0.0
20-02-2024 15:02 5 80 8.8 1019.1 13.3 18.4 NWW 1022.9 5.6 4.3 0.0
20-02-2024 15:07 5 79 8.8 1019.1 12.2 18.4 NWW 1022.9 5.4 4.8 0.0
20-02-2024 15:12 5 80 8.7 1018.6 12.2 18.4 W 1022.4 5.5 4.7 0.0
20-02-2024 15:17 5 81 8.7 1018.8 9.7 14.8 NWW 1022.6 5.6 6.0 0.0
20-02-2024 15:22 5 81 8.7 1019.0 11.2 14.8 NWW 1022.8 5.6 5.2 0.0
20-02-2024 15:27 5 80 8.9 1018.7 13.3 20.9 NWW 1022.5 5.6 4.5 0.0
20-02-2024 15:32 5 80 8.9 1018.8 9.7 17.3 W 1022.6 5.6 6.2 0.0
20-02-2024 15:37 5 81 8.9 1018.9 14.8 22.0 W 1022.7 5.8 3.9 0.0
20-02-2024 15:42 5 82 8.8 1018.7 7.2 11.2 NWW 1022.5 5.9 7.6 0.0
20-02-2024 15:47 5 81 8.8 1019.1 6.1 9.7 W 1022.9 5.7 8.8 0.0
20-02-2024 15:52 5 81 8.8 1018.8 5.0 9.7 NW 1022.6 5.7 8.8 0.0
20-02-2024 15:57 5 82 8.8 1019.0 2.5 7.2 NWW 1022.8 5.9 8.8 0.0
20-02-2024 16:02 5 81 8.8 1018.9 3.6 6.1 NWW 1022.7 5.7 8.8 0.0
20-02-2024 16:07 5 82 8.8 1019.0 7.2 9.7 NWW 1022.8 5.9 7.6 0.0
20-02-2024 16:12 5 82 8.7 1018.7 5.0 7.2 NWW 1022.5 5.8 8.7 0.0
20-02-2024 16:17 5 82 8.7 1018.8 7.2 11.2 NWW 1022.6 5.8 7.5 0.0
20-02-2024 16:22 5 82 8.7 1018.9 7.2 11.2 NWW 1022.7 5.8 7.5 0.0
20-02-2024 16:27 5 82 8.7 1018.8 5.0 7.2 NWW 1022.6 5.8 8.7 0.0
20-02-2024 16:32 5 82 8.7 1019.0 6.1 13.3 NWW 1022.8 5.8 8.7 0.0
20-02-2024 16:37 5 82 8.7 1018.7 7.2 11.2 W 1022.5 5.8 7.5 0.0
20-02-2024 16:42 5 83 8.6 1018.9 2.5 6.1 W 1022.7 5.9 8.6 0.0
20-02-2024 16:47 5 83 8.6 1018.8 1.1 3.6 NW 1022.6 5.9 8.6 0.0
20-02-2024 16:52 5 83 8.6 1018.6 2.5 3.6 NWW 1022.4 5.9 8.6 0.0
20-02-2024 16:57 5 83 8.5 1018.5 2.5 6.1 NWW 1022.3 5.8 8.5 0.0
20-02-2024 17:02 5 84 8.5 1018.7 1.1 2.5 W 1022.5 6.0 8.5 0.0
20-02-2024 17:07 5 84 8.4 1018.6 2.5 3.6 SW 1022.4 5.9 8.4 0.0
20-02-2024 17:12 5 84 8.4 1018.7 3.6 7.2 NWW 1022.5 5.9 8.4 0.0
20-02-2024 17:17 5 84 8.4 1018.7 2.5 3.6 NWW 1022.5 5.9 8.4 0.0
20-02-2024 17:22 5 84 8.4 1018.6 2.5 6.1 NWW 1022.4 5.9 8.4 0.0
20-02-2024 17:27 5 84 8.4 1018.5 7.2 14.8 W 1022.3 5.9 7.2 0.0
20-02-2024 17:32 5 84 8.4 1018.6 2.5 3.6 NWW 1022.4 5.9 8.4 0.0
20-02-2024 17:37 5 84 8.3 1018.4 2.5 6.1 NWW 1022.2 5.8 8.3 0.0
20-02-2024 17:42 5 84 8.2 1018.5 6.1 7.2 W 1022.3 5.7 8.2 0.0
20-02-2024 17:47 5 85 8.2 1018.8 3.6 6.1 NWW 1022.6 5.8 8.2 0.0
20-02-2024 17:52 5 84 8.2 1018.7 3.6 6.1 W 1022.5 5.7 8.2 0.0
20-02-2024 17:57 5 84 8.3 1018.3 5.0 6.1 NWW 1022.1 5.8 8.3 0.0
20-02-2024 18:02 5 84 8.2 1018.3 2.5 3.6 NWW 1022.1 5.7 8.2 0.0
20-02-2024 18:07 5 84 8.1 1018.3 2.5 3.6 W 1022.1 5.6 8.1 0.0
20-02-2024 18:12 5 84 8.2 1018.4 2.5 6.1 W 1022.2 5.7 8.2 0.0
20-02-2024 18:17 5 84 8.1 1018.3 0.0 2.5 W 1022.1 5.6 8.1 0.0
20-02-2024 18:22 5 85 8.0 1018.3 1.1 2.5 SWW 1022.1 5.6 8.0 0.0
20-02-2024 18:27 5 85 7.9 1018.4 2.5 3.6 W 1022.2 5.5 7.9 0.0
20-02-2024 18:32 5 85 7.9 1018.3 1.1 2.5 SSW 1022.1 5.5 7.9 0.0
20-02-2024 18:37 5 85 7.9 1018.3 1.1 3.6 SW 1022.1 5.5 7.9 0.0
20-02-2024 18:42 5 85 8.0 1018.4 2.5 6.1 SWW 1022.2 5.6 8.0 0.0
20-02-2024 18:47 5 84 8.0 1018.6 2.5 6.1 NWW 1022.4 5.5 8.0 0.0
20-02-2024 18:52 5 84 8.1 1018.2 2.5 3.6 W 1022.0 5.6 8.1 0.0
20-02-2024 18:57 5 85 8.1 1018.3 2.5 3.6 SWW 1022.1 5.7 8.1 0.0
20-02-2024 19:02 5 85 8.1 1018.3 1.1 3.6 NWW 1022.1 5.7 8.1 0.0
20-02-2024 19:07 5 85 8.1 1018.4 2.5 3.6 NWW 1022.2 5.7 8.1 0.0
20-02-2024 19:12 5 85 8.1 1018.3 1.1 2.5 NWW 1022.1 5.7 8.1 0.0
20-02-2024 19:17 5 85 8.1 1018.1 1.1 3.6 W 1021.9 5.7 8.1 0.0
20-02-2024 19:22 5 85 8.1 1017.9 2.5 3.6 SWW 1021.7 5.7 8.1 0.0
20-02-2024 19:27 5 85 8.0 1017.9 2.5 3.6 SWW 1021.7 5.6 8.0 0.0
20-02-2024 19:32 5 85 8.0 1017.9 1.1 3.6 NWW 1021.7 5.6 8.0 0.0
20-02-2024 19:37 5 85 8.0 1017.9 2.5 6.1 NWW 1021.7 5.6 8.0 0.0
20-02-2024 19:42 5 85 7.9 1018.1 1.1 3.6 SWW 1021.9 5.5 7.9 0.0
20-02-2024 19:47 5 86 7.8 1017.9 2.5 3.6 NWW 1021.7 5.6 7.8 0.0
20-02-2024 19:52 5 86 7.8 1017.9 2.5 6.1 SWW 1021.7 5.6 7.8 0.0
20-02-2024 19:57 5 86 7.8 1017.7 2.5 3.6 NWW 1021.5 5.6 7.8 0.0
20-02-2024 20:02 5 86 7.8 1018.0 2.5 7.2 SWW 1021.8 5.6 7.8 0.0
20-02-2024 20:07 5 86 7.8 1017.9 3.6 6.1 SWW 1021.7 5.6 7.8 0.0
20-02-2024 20:12 5 86 7.8 1017.5 0.0 2.5 SWW 1021.3 5.6 7.8 0.0
20-02-2024 20:17 5 85 7.8 1017.5 2.5 7.2 NW 1021.3 5.4 7.8 0.0
20-02-2024 20:22 5 86 7.7 1017.6 2.5 3.6 W 1021.4 5.5 7.7 0.0
20-02-2024 20:27 5 86 7.6 1017.5 2.5 6.1 W 1021.3 5.4 7.6 0.0
20-02-2024 20:32 5 86 7.6 1017.7 5.0 7.2 SW 1021.5 5.4 7.6 0.0
20-02-2024 20:37 5 86 7.7 1017.4 2.5 6.1 W 1021.2 5.5 7.7 0.0
20-02-2024 20:42 5 86 7.6 1017.3 2.5 3.6 NWW 1021.1 5.4 7.6 0.0
20-02-2024 20:47 5 86 7.6 1017.5 2.5 6.1 W 1021.3 5.4 7.6 0.0
20-02-2024 20:52 5 86 7.6 1017.2 2.5 3.6 W 1021.0 5.4 7.6 0.0
20-02-2024 20:57 5 86 7.7 1017.2 1.1 3.6 SWW 1021.0 5.5 7.7 0.0
20-02-2024 21:02 5 86 7.7 1017.1 5.0 7.2 W 1020.9 5.5 7.7 0.0
20-02-2024 21:07 5 86 7.7 1016.9 6.1 9.7 SWW 1020.7 5.5 7.7 0.0
20-02-2024 21:12 5 85 7.8 1017.1 3.6 7.2 SWW 1020.9 5.4 7.8 0.0
20-02-2024 21:17 5 85 7.8 1017.0 2.5 7.2 NWW 1020.8 5.4 7.8 0.0
20-02-2024 21:22 5 85 7.8 1017.2 2.5 3.6 SWW 1021.0 5.4 7.8 0.0
20-02-2024 21:27 5 85 7.9 1017.1 3.6 7.2 NWW 1020.9 5.5 7.9 0.0
20-02-2024 21:32 5 85 7.8 1017.1 5.0 7.2 SWW 1020.9 5.4 7.8 0.0
20-02-2024 21:37 5 85 7.9 1017.0 2.5 6.1 SW 1020.8 5.5 7.9 0.0
20-02-2024 21:42 5 85 7.8 1017.0 5.0 9.7 SWW 1020.8 5.4 7.8 0.0
20-02-2024 21:47 5 85 7.9 1017.0 3.6 9.7 NWW 1020.8 5.5 7.9 0.0
20-02-2024 21:52 5 85 7.8 1017.0 3.6 7.2 NWW 1020.8 5.4 7.8 0.0
20-02-2024 21:57 5 85 7.8 1017.1 1.1 6.1 W 1020.9 5.4 7.8 0.0
20-02-2024 22:02 5 86 7.7 1017.0 2.5 6.1 NWW 1020.8 5.5 7.7 0.0
20-02-2024 22:07 5 87 7.6 1016.7 5.0 7.2 SW 1020.5 5.6 7.6 0.0
20-02-2024 22:12 5 87 7.6 1016.7 2.5 3.6 W 1020.5 5.6 7.6 0.0
20-02-2024 22:17 5 87 7.5 1016.6 5.0 9.7 W 1020.4 5.5 7.5 0.0
20-02-2024 22:22 5 87 7.5 1016.8 6.1 13.3 SSW 1020.6 5.5 7.5 0.0
20-02-2024 22:27 5 86 7.6 1016.7 8.6 13.3 SW 1020.5 5.4 5.4 0.0
20-02-2024 22:32 5 87 7.6 1016.4 3.6 7.2 W 1020.2 5.6 7.6 0.0
20-02-2024 22:37 5 87 7.6 1016.5 5.0 9.7 SW 1020.3 5.6 7.6 0.0
20-02-2024 22:42 5 86 7.6 1016.4 7.2 11.2 SWW 1020.2 5.4 6.4 0.0
20-02-2024 22:47 5 87 7.6 1016.6 3.6 7.2 NWW 1020.4 5.6 7.6 0.0
20-02-2024 22:52 5 87 7.5 1016.3 5.0 9.7 SW 1020.1 5.5 7.5 0.0
20-02-2024 22:57 5 87 7.5 1016.4 3.6 9.7 SW 1020.2 5.5 7.5 0.0
20-02-2024 23:02 5 87 7.5 1016.2 6.1 9.7 SSW 1020.0 5.5 7.5 0.0
20-02-2024 23:07 5 87 7.5 1016.4 5.0 9.7 SSW 1020.2 5.5 7.5 0.0
20-02-2024 23:12 5 87 7.6 1016.1 5.0 9.7 SWW 1019.9 5.6 7.6 0.0
20-02-2024 23:17 5 86 7.6 1015.9 7.2 14.8 S 1019.7 5.4 6.4 0.0
20-02-2024 23:22 5 86 7.6 1015.9 5.0 9.7 W 1019.7 5.4 7.6 0.0
20-02-2024 23:27 5 86 7.6 1015.8 3.6 6.1 SSW 1019.6 5.4 7.6 0.0
20-02-2024 23:32 5 86 7.6 1015.6 8.6 13.3 SWW 1019.4 5.4 5.4 0.0
20-02-2024 23:37 5 86 7.6 1015.5 7.2 13.3 SSW 1019.3 5.4 6.4 0.0
20-02-2024 23:42 5 86 7.6 1015.5 8.6 17.3 SSW 1019.3 5.4 5.4 0.0
20-02-2024 23:47 5 86 7.7 1015.6 6.1 9.7 SW 1019.4 5.5 7.7 0.0
20-02-2024 23:52 5 86 7.7 1015.5 6.1 9.7 SW 1019.3 5.5 7.7 0.0
20-02-2024 23:57 5 87 7.7 1015.5 3.6 6.1 NW 1019.3 5.7 7.7 0.0

  

Tagesdaten                                                                    Tabelle: 07:00 UHR

STATIONHÖHELUFTD.TEMP.T-MinT-MaxU%RR1RR12SSSDDFFFXWetter+WolkenBöen
Helgoland 4 1023.3 6.4 6.4 7.0 96 0.0 0 0 W 18 34 --- ---
List/Sylt 26 1021.5 5.7 5.2 6.4 98 0.0 0 0 W 23 34 Dunst oder flacher Nebel ---
Schleswig 43 1022.0 5.9 5.8 7.0 93 0.0 0 0 W 12 21 --- ---
Leuchtturm Kiel 5 1021.4 5.9 5.6 7.4 88 ---- --- --- W 32 40 --- ---
Kiel 27 1022.0 6.5 6.3 7.8 88 0.0 0 0 W 19 36 --- ---
Fehmarn 3 1020.9 5.2 5.2 6.1 92 0.0 0 0 W 36 47 --- ---
Arkona 42 1018.1 5.1 5.0 6.6 98 0.0 0 0 W 39 50 --- ---
Norderney 11 1024.4 6.8 6.7 7.3 96 0.0 0 0 W 19 31 Dunst oder flacher Nebel ---
Cuxhaven 5 1023.6 6.7 6.6 7.7 93 0.0 0 0 W 21 35 --- ---
Hamburg-Flh. 11 1023.4 6.8 6.5 8.8 90 0.0 1 0 W 15 26 --- ---
Schwerin 59 1021.8 6.5 6.5 8.2 88 0.0 0 0 -- --- 42 --- ---
Rostock 4 1020.2 5.4 5.3 7.8 96 0.0 2 0 W 34 42 Regen ---
Greifswald 2 1019.2 6.1 6.1 7.6 94 0.0 1 0 W 19 35 leichter Regen ---
Emden 0 1025.1 5.6 5.3 8.0 96 0.0 0 0 W 13 22 --- ---
Bremen-Flh. 5 1025.3 6.3 6.3 9.1 92 ---- --- --- -- --- 33   ---
Lüchow 17 1023.2 7.1 7.1 9.5 85 0.0 3 0 W 14 28 --- ---
Marnitz 81 1021.6 6.5 6.3 8.0 91 0.0 1 0 NW 18 40 leichter Regen ---
Waren 70 1020.6 6.4 6.2 8.1 96 0.2 0 0 W 13 23 leichter Regen ---
Neuruppin 38 1021.1 6.4 6.4 8.3 95 0.1 0 0 W 10 27 --- ---
Angermünde 56 1019.8 6.8 6.8 8.0 94 0.2 1 0 W 18 27 leichter Regen ---
Münster/Osnabr.-Flh. 48 1027.2 6.0 6.0 8.9 95 0.0 0 0 W 12 18 --- ---
Hannover-Flh. 59 1025.4 6.7 6.5 8.9 89 0.0 4 0 W 15 27 --- ---
Magdeburg 76 1023.7 7.3 7.2 9.6 91 0.2 1 0 NW 13 31 Regen ---
Potsdam 81 1021.6 6.5 6.5 8.3 96 0.2 1 0 W 23 44 Regen ---
Berlin-Brandenburg-Flgh. 46 1021.2 7.2 --- 8.5 91 ---- --- --- W 23 36 --- ---
Berlin-Tempelhof 48 1021.2 7.5 7.4 8.9 86 0.1 1 0 W 21 49 Regen ---
Lindenberg 91 1020.8 7.2 7.2 8.0 93 0.0 4 0 W 16 32 Regen ---
Düsseldorf-Flh. 45 1028.6 4.2 3.9 9.2 95 0.0 0 --- S 8 11 --- ---
Essen 150 1028.5 4.7 4.7 8.4 97 0.0 1 0 SW 8 13 Dunst oder flacher Nebel ---
Kahler Asten 839 ------ 1.1 0.9 3.9 100 0.0 6 0 NW 21 45 Nebel ---
Bad Lippspringe 157 1027.2 6.0 6.0 8.7 93 0.0 4 0 W 12 21 --- ---
Brocken 1142 ------ -0.2 -0.3 1.9 99 0.6 5 0 NW 41 73 gefrierender Nebel Sturmböen
Leipzig-Flh. 142 1024.3 7.1 6.6 8.6 84 0.0 0 0 W 25 36 --- ---
Dresden-Flh. 227 1023.2 7.0 6.9 8.4 90 0.0 1 0 W 18 28 leichter Regen ---
Cottbus 69 1021.4 7.8 7.4 8.3 92 0.0 1 0 W 11 26 --- ---
Görlitz 238 1022.1 7.1 6.8 7.6 93 0.2 1 0 W 15 29 Regen ---
Aachen 231 1029.5 5.2 5.0 8.0 97 0.0 1 0 SW 14 18 Dunst oder flacher Nebel ---
Nürburg 485 1030.3 3.0 2.9 6.4 93 0.0 1 0 W 8 12 --- ---
Köln/Bonn-Flh. 92 1029.5 5.0 5.0 9.3 95 0.0 1 --- SW 3 11 Dunst oder flacher Nebel ---
Gießen/Wettenberg 203 1028.9 5.0 5.0 8.9 84 0.0 1 0 W 13 24 --- ---
Wasserkuppe 921 ------ 1.1 1.1 3.9 99 0.0 7 0 NW 26 44 Nebel ---
Meiningen 450 1027.2 4.4 4.3 7.9 88 0.2 1 0 NW 10 26 Regen ---
Erfurt 316 1026.0 5.6 5.5 7.9 88 0.0 1 0 W 21 35 --- ---
Gera 311 1025.1 6.4 6.4 7.7 85 0.0 0 0 NW 17 31 --- ---
Fichtelberg 1213 ------ 0.3 0.3 1.2 100 0.5 3 12 -- --- 59 Regen Windböen
Trier 265 1030.8 4.2 4.0 9.2 96 0.0 1 0 SW 9 18 --- ---
Hahn-Flh. 497 1030.2 3.4 3.3 7.0 97 0.0 1 0 W 13 20 --- ---
Frankfurt/M-Flh. 112 1029.4 7.6 7.6 10.6 76 0.0 0 0 NW 14 27 --- ---
OF-Wetterpark 119 1029.1 7.6 7.1 9.5 74 0.0 0 0 W 13 23 --- ---
Würzburg 268 1028.6 6.4 6.4 8.8 84 0.0 1 0 W 13 26 --- ---
Bamberg 239 1027.3 6.8 6.7 9.0 86 0.0 1 0 W 7 15 leichter Regen ---
Hof 567 1025.8 4.4 4.4 5.8 90 0.1 2 0 W 12 28 Regen ---
Weiden 438 1026.2 5.7 5.3 6.4 92 0.0 2 0 W 9 19 --- ---
Saarbrücken-Flh. 320 1031.1 5.1 3.4 8.4 96 0.0 1 --- W 9 15 --- ---
Karlsruhe-Rheinst. 116 1030.7 6.8 6.6 10.6 88 0.0 1 0 SW 11 17 --- ---
Mannheim 96 1029.8 7.4 6.7 10.6 76 0.0 0 0 W 12 22 --- ---
Stuttgart-Flh. 371 1029.8 6.6 6.5 9.2 80 0.0 1 0 W 19 31 --- ---
Öhringen 276 1029.5 6.0 6.0 9.2 86 0.0 2 0 W 14 24 --- ---
Nürnberg-Flh. 314 1027.4 6.5 6.2 8.2 89 0.3 1 0 W 19 28 Regen ---
Regensburg 366 1026.8 6.7 5.9 7.2 84 0.0 0 0 W 10 24 leichter Regen ---
Straubing 351 1026.6 6.6 5.5 7.7 91 0.1 2 0 W 14 21 Regen ---
Großer Arber 1436 ------ -0.5 -0.9 -0.1 100 0.2 2 175 NW 24 47 Niederschlag ---
Lahr 155 1031.4 5.9 5.9 10.2 94 0.0 5 0 SO 4 6 --- ---
Freudenstadt 797 ------ 2.1 1.9 5.4 93 0.0 6 0 W 18 23 --- ---
Stötten 734 1029.6 2.9 2.9 5.8 98 0.1 6 0 NW 27 40 Regen ---
Augsburg 462 1028.4 5.6 5.3 7.6 92 0.5 2 0 W 15 22 Regen ---
München-Flh. 444 1027.7 6.0 5.6 7.5 88 0.0 0 0 W 12 22 Regen ---
Fürstenzell 476 1026.2 5.7 4.9 6.5 96 0.0 2 0 W 14 26 --- ---
Feldberg/Schw. 1486 ------ -2.4 -2.5 1.0 98 0.0 8 9 NW 26 47 gefrierender Nebel ---
Konstanz 443 1030.6 5.7 5.5 9.3 85 0.0 2 0 NW 10 16 --- ---
Kempten 705 1030.3 2.9 2.7 6.8 94 0.0 4 0 S 9 23 Regen ---
Oberstdorf 806 ------ 1.6 0.9 4.9 96 0.5 14 0 S 9 13 leichter Regen ---
Zugspitze 2960 ------ -9.6 -9.6 -8.7 91 ---- --- 313 N 12 28 Schneefall ---
Hohenpeißenberg 977 ------ 1.3 1.3 3.8 99 0.1 2 0 W 20 35 Regen ---

                                                                                                       Tabelle: 19:00 UHR

 

STATIONHÖHELUFTD.TEMP.T-MinT-MaxU%RR1RR12SSSDDFFFXWetter+WolkenBöen
Helgoland 4 1019.1 7.8 6.4 7.8 88 0.0 0 0 SW 27 40 --- ---
List/Sylt 26 1017.1 6.8 5.6 7.6 94 0.0 0 0 S 37 49 --- ---
Schleswig 43 1019.2 7.6 5.6 9.0 88 0.0 0 0 SW 17 40 --- ---
Leuchtturm Kiel 5 1019.6 7.9 5.7 8.5 85 ---- --- --- SW 35 44 --- ---
Kiel 27 1019.9 8.5 6.2 9.1 83 0.0 0 0 SW 18 33 --- ---
Fehmarn 3 1020.1 6.6 5.2 7.2 91 0.0 0 0 SW 15 26 --- ---
Arkona 42 1019.6 5.8 4.8 6.7 92 0.0 0 0 W 37 44 --- ---
Norderney 11 1020.1 8.8 6.8 9.1 83 0.0 0 0 SW 26 41 Regen ---
Cuxhaven 5 1020.3 8.8 6.7 9.5 83 0.0 0 0 S 17 32 --- ---
Hamburg-Flh 11 1021.8 8.6 6.6 9.6 82 0.0 0 0 SW 17 26 Regen ---
Schwerin 59 1021.7 7.9 6.2 9.6 85 0.0 0 0 SW 12 21 --- ---
Rostock 4 1020.6 8.2 5.2 9.2 81 0.0 0 0 SW 12 29 --- ---
Greifswald 2 1020.7 7.9 --- --- 82 0.0 --- 0 W 15 27 --- ---
Emden 0 1020.9 9.4 5.6 10.1 80 0.0 0 0 S 19 40 leichter Regen ---
Bremen-Flh. 5 1022.5 8.6 5.3 9.7 81 0.0 0 --- SW 15 27 --- ---
Lüchow 17 1023.2 8.7 6.8 10.0 79 0.0 0 0 SW 13 18 --- ---
Marnitz 81 1022.3 7.9 6.1 9.3 84 0.0 0 0 SW 8 18 --- ---
Waren 70 1021.8 7.9 6.1 9.2 83 0.0 1 0 W 10 21 --- ---
Neuruppin 38 1022.7 8.2 6.4 8.9 82 0.0 0 0 W 9 18 --- ---
Angermünde 56 1022.3 7.2 6.5 8.5 85 0.0 0 0 W 10 27 --- ---
Münster/Osnabr.-Flh. 48 1024.2 9.4 5.8 9.9 77 0.0 0 0 S 11 20 --- ---
Hannover-Flh. 59 1024.0 8.4 6.5 9.9 78 0.0 0 0 SW 11 22 --- ---
Magdeburg 76 1024.3 9.2 7.0 10.6 75 0.0 0 0 W 11 23 --- ---
Potsdam 81 1023.5 7.6 6.5 9.0 85 0.0 1 0 W 18 24 --- ---
Berlin-Brandenburg-Flgh. 46 1023.6 7.8 6.7 8.6 81 0.0 1 --- SW 15 21 --- ---
Berlin-Tempelhof 48 1023.5 8.8 6.9 9.1 76 0.0 1 0 SW 10 20 --- ---
Lindenberg 91 1023.5 7.5 6.6 8.4 80 0.0 0 0 W 13 27 Regen ---
Düsseldorf-Flh. 45 1026.0 9.2 4.1 11.4 76 0.0 0 --- SW 21 29 --- ---
Essen 150 1025.8 8.7 4.7 10.4 77 0.0 0 0 SW 15 27 --- ---
Kahler Asten 839 ------ 3.0 0.9 3.0 97 0.0 0 0 W 31 44 --- ---
Bad Lippspringe 157 1025.3 7.6 5.7 9.1 83 0.0 0 0 SW 6 14 --- ---
Brocken 1142 ------ 0.1 -1.3 0.4 98 0.0 1 0 W 59 72 Nebel Sturmböen
Leipzig-Flh. 142 1025.4 8.1 6.7 10.5 77 0.0 0 0 W 15 21 --- ---
Dresden-Flh. 227 1025.6 7.3 6.2 8.1 74 0.0 1 0 W 15 26 --- ---
Cottbus 69 1024.2 7.7 7.0 9.3 80 0.0 1 0 W 10 17 --- ---
Görlitz 238 1025.0 6.5 5.9 8.6 79 0.0 1 0 W 13 25 --- ---
Aachen 231 1026.5 7.7 5.2 10.6 80 0.0 0 0 SW 21 37 --- ---
Nürburg 485 1027.7 5.7 2.7 8.0 81 0.0 0 0 SW 13 27 --- ---
Köln/Bonn-Flh. 92 1027.3 7.3 4.4 11.8 73 0.0 0 --- SW 8 17 --- ---
Gießen/Wettenberg 203 1027.4 7.2 4.1 9.5 80 0.0 0 0 S 14 20 --- ---
Wasserkuppe 921 ------ 2.2 0.4 3.0 95 0.0 1 0 W 32 46 --- ---
Meiningen 450 1027.4 6.2 4.2 8.1 76 0.0 0 0 SW 8 16 --- ---
Erfurt 316 1026.5 7.0 5.3 9.3 75 0.0 0 0 SW 16 23 --- ---
Gera 311 1026.2 7.4 6.2 8.3 73 0.0 0 0 SW 13 22 Regen ---
Fichtelberg 1213 ------ -0.4 -0.5 0.2 99 0.0 4 13 W 46 60 gefrierender Nebel Windböen
Trier 265 1028.8 7.8 3.9 10.0 77 0.0 0 0 SW 19 37 --- ---
Hahn-Flh. 497 1028.3 5.8 3.3 7.5 80 0.0 0 0 SW 13 22 --- ---
Frankfurt/M-Flh. 112 1028.1 9.1 5.5 11.4 70 0.0 0 0 SW 15 24 --- ---
OF-Wetterpark 119 1028.1 9.1 7.0 11.6 72 0.0 0 0 SW 9 20 --- ---
Würzburg 268 1028.7 8.1 6.4 10.6 72 0.0 0 0 SW 17 26 --- ---
Bamberg 239 1028.4 8.4 6.8 10.7 69 0.0 0 0 SW 9 14 --- ---
Hof 567 1027.4 5.2 3.8 6.7 78 0.0 0 0 SW 10 26 --- ---
Weiden 438 1028.3 6.2 5.6 --- 69 0.0 0 0 S 6 13 --- ---
Saarbrücken-Flh. 320 1029.5 7.9 4.8 9.8 76 0.0 0 --- W 14 25 --- ---
Karlsruhe-Rheinst. 116 1029.5 9.2 6.5 11.3 74 0.0 0 0 SW 15 22 --- ---
Mannheim 96 1028.8 9.7 5.7 11.5 69 0.0 0 0 S 10 16 --- ---
Stuttgart-Flh. 371 1029.7 8.2 6.2 10.3 63 0.0 0 0 SW 8 19 --- ---
Öhringen 276 1029.2 8.3 5.6 10.5 68 0.0 0 0 SW 10 19 --- ---
Nürnberg-Flh. 314 1028.8 7.7 6.3 9.9 70 0.0 0 0 SW 8 15 --- ---
Regensburg 366 1029.1 6.8 5.9 10.8 68 0.0 1 0 SW 5 15 --- ---
Straubing 351 1029.1 6.4 5.2 8.8 71 0.0 3 0 SW 12 26 --- ---
Großer Arber 1436 ------ -1.8 -2.0 -0.4 98 0.0 4 176 W 29 50 gefrierender Nebel Windböen
Lahr 155 1030.0 9.0 5.0 11.8 67 0.0 0 0 SW 6 15 --- ---
Freudenstadt 797 ------ 3.3 1.8 5.0 91 0.0 0 0 W 12 20 --- ---
Stötten 734 1029.8 4.6 2.8 7.0 75 0.0 0 0 W 20 29 --- ---
Augsburg 462 1030.0 5.8 4.9 9.0 75 0.0 0 0 SW 11 16 --- ---
München-Flh. 444 1030.2 5.4 4.8 8.4 73 0.0 0 0 SW 13 22 --- ---
Fürstenzell 476 1029.4 5.9 5.5 8.2 70 0.0 1 0 SW 12 23 --- ---
Feldberg/Schw. 1486 ------ -1.6 -2.7 -1.1 93 0.0 0 9 SW 29 33 --- ---
Konstanz 443 1030.3 7.5 5.1 9.9 66 0.0 0 0 SO 5 8 --- ---
Kempten 705 1031.0 4.4 2.9 7.5 73 0.0 0 0 S 8 17 --- ---
Oberstdorf 806 ------ 1.9 1.6 7.0 94 0.0 1 0 SW 6 10 --- ---
Zugspitze 2960 ------ -13.1 -13.1 -9.6 87 ---- --- --- NW 17 31 Schneefall ---
Hohenpeißenberg 977 ------ 2.0 1.2 5.8 81 0.0 0 0 SW 21 31 --- ---

 

  • Wetterzustand
  • Windrichtung und -geschwindigkeit
  • Luftdruck
  • relative Luftfeuchtigkeit
  • Sichtweite
  • Gesamtbedeckungsgrad
  • Niederschlag
  • Sonnenscheindauer

 Höhe:     m über NN
Luftd.:   auf Meereshöhe reduzierter Luftdruck in hPa
TEMP.:   Lufttemperatur in Grad Celsius
T-MIN:   Minimumtemperatur der Luft in 2m Höhe in Grad Celsius, von 18 UTC Vortag bis 06 UTC heute
T-MAX:  Maximumtemperatur der Luft in 2m Höhe in Grad Celsius, von 18 UTC Vortag bis 06 UTC heute
RR1:     Niederschlagsmenge, einstündig, mm ist gleich Liter pro
RR12:   Niederschlagsmenge, 12 stündig, 18 UTC Vortag bis 06 UTC heute in mm ist gleich Liter pro
SSS:     Gesamtschneehöhe
DD:      Windrichtung
FF:       Windgeschwindigkeit letztes 10-Minutenmittel in km/h
FX:       höchste Windspitze während der letzten Stunde in km/h
---:      Wert nicht vorhanden

 

2009-2024

Unwetterwarnungen

Unwetterwarnungen

  Überblick über die aktuelle Warnlage in Deutschland

  Radarbild           

aktueller Radarfilm Deutschland

Mecklenburg Vorpommern/

Brandenburg

aktuelles Wetter und aktuelle Temperatur Region Nordost

Waldbrandgefahr   

Deutschlandkarte mit dem Tageswert des Waldbrand-Gefahrenindex WBI, heute